Time;durP1;ratioP1;P1;durP2;ratioP2;P2;SDS_P1;SDS_P2;PMS_P1;PMS_P2;Temp;Humidity;BMP_temperature;BMP_pressure;BME280_temperature;BME280_humidity;BME280_pressure;Samples;Min_cycle;Max_cycle;Signal;HPM_P1;HPM_P2
2021/03/01 00:00:41;;;;;;;6.69;3.80;;;;;;;2.83;67.46;100818.78;2033090;76;20905;-71
2021/03/01 00:03:43;;;;;;;7.09;3.24;;;;;;;2.79;68.11;100826.25;2037948;79;20329;-71
2021/03/01 00:06:45;;;;;;;6.38;3.71;;;;;;;2.76;67.88;100824.44;2037833;79;20736;-71
2021/03/01 00:09:47;;;;;;;5.86;3.20;;;;;;;2.70;67.73;100831.84;2038573;79;20324;-71
2021/03/01 00:12:48;;;;;;;6.85;3.97;;;;;;;2.58;68.27;100826.97;2038326;79;20313;-72
2021/03/01 00:15:50;;;;;;;7.24;3.72;;;;;;;2.44;68.32;100825.38;2036132;76;20355;-71
2021/03/01 00:18:52;;;;;;;7.93;3.71;;;;;;;2.33;68.16;100824.81;2032874;79;20355;-70
2021/03/01 00:21:54;;;;;;;9.75;4.29;;;;;;;2.18;68.54;100821.47;2032486;79;20351;-71
2021/03/01 00:24:56;;;;;;;6.51;3.67;;;;;;;2.11;68.85;100827.94;2032977;79;20306;-70
2021/03/01 00:27:57;;;;;;;6.34;3.65;;;;;;;2.04;68.96;100822.44;2032754;79;20372;-71
2021/03/01 00:30:59;;;;;;;9.11;4.09;;;;;;;1.98;69.00;100828.13;2032381;76;20602;-70
2021/03/01 00:34:00;;;;;;;9.15;3.99;;;;;;;1.92;69.32;100826.91;2077505;69;20344;-71
2021/03/01 00:37:02;;;;;;;5.82;3.80;;;;;;;1.85;69.43;100827.38;2022414;80;20377;-71
2021/03/01 00:40:05;;;;;;;7.39;4.25;;;;;;;1.81;69.47;100826.34;2022900;80;20304;-71
2021/03/01 00:43:07;;;;;;;6.21;3.80;;;;;;;1.72;70.18;100821.59;2021908;80;20359;-71
2021/03/01 00:46:08;;;;;;;8.89;4.35;;;;;;;1.68;70.42;100824.81;2023654;77;21139;-72
2021/03/01 00:49:11;;;;;;;8.74;5.21;;;;;;;1.65;71.12;100819.53;2026929;79;20346;-72
2021/03/01 00:52:13;;;;;;;8.74;4.94;;;;;;;1.62;70.94;100814.25;2027811;79;20334;-71
2021/03/01 00:55:16;;;;;;;6.61;4.10;;;;;;;1.58;71.49;100813.97;2027146;79;20808;-71
2021/03/01 00:58:19;;;;;;;6.11;3.88;;;;;;;1.56;71.55;100811.31;2027859;79;20334;-72
2021/03/01 01:01:20;;;;;;;5.64;3.72;;;;;;;1.53;71.25;100813.72;2024687;77;21340;-72
2021/03/01 01:04:22;;;;;;;6.65;4.07;;;;;;;1.46;72.46;100809.97;2022734;80;20418;-72
2021/03/01 01:07:24;;;;;;;10.24;4.55;;;;;;;1.48;72.70;100822.84;2021526;80;20332;-72
2021/03/01 01:10:26;;;;;;;8.86;3.78;;;;;;;1.50;73.54;100809.31;2021477;80;20329;-71
2021/03/01 01:13:27;;;;;;;7.51;4.46;;;;;;;1.61;73.65;100809.88;2022142;80;20339;-71
2021/03/01 01:16:29;;;;;;;8.77;4.15;;;;;;;1.67;72.86;100806.81;2023742;77;21307;-71
2021/03/01 01:19:30;;;;;;;9.60;4.57;;;;;;;1.61;72.60;100807.31;2027353;79;20335;-72
2021/03/01 01:22:32;;;;;;;9.49;4.71;;;;;;;1.61;72.17;100812.44;2027378;79;20361;-72
2021/03/01 01:25:34;;;;;;;8.43;4.60;;;;;;;1.64;72.07;100814.31;2027598;79;20326;-71
2021/03/01 01:28:36;;;;;;;7.96;4.09;;;;;;;1.56;72.54;100802.78;2027162;79;20390;-71
2021/03/01 01:31:37;;;;;;;8.82;4.75;;;;;;;1.48;72.48;100808.38;2023686;77;20917;-71
2021/03/01 01:34:39;;;;;;;9.32;4.72;;;;;;;1.38;72.60;100797.53;2022370;80;20344;-71
2021/03/01 01:37:41;;;;;;;9.70;4.72;;;;;;;1.36;72.97;100791.44;2021965;80;20334;-71
2021/03/01 01:41:01;;;;;;;8.74;4.53;;;;;;;1.32;72.89;100795.53;2021571;80;20420;-71
2021/03/01 01:44:10;;;;;;;7.84;4.34;;;;;;;1.27;72.70;100789.28;2019698;80;20380;-71
2021/03/01 01:47:12;;;;;;;8.51;4.25;;;;;;;1.24;72.82;100788.22;2023888;79;20362;-71
2021/03/01 01:50:30;;;;;;;7.73;3.84;;;;;;;1.19;72.95;100785.41;2026663;79;20432;-71
2021/03/01 01:53:39;;;;;;;7.11;3.89;;;;;;;1.11;72.97;100787.56;2026081;79;20190;-71
2021/03/01 01:56:49;;;;;;;7.91;4.41;;;;;;;1.07;72.98;100784.72;2114079;69;20213;-70
2021/03/01 02:00:05;;;;;;;7.71;3.94;;;;;;;1.01;73.14;100782.72;2029793;79;20381;-70
2021/03/01 02:03:32;;;;;;;7.06;4.21;;;;;;;0.96;72.89;100783.25;2023843;77;21748;-70
2021/03/01 02:06:46;;;;;;;6.18;3.63;;;;;;;0.89;72.68;100774.34;2027003;79;20345;-70
2021/03/01 02:10:31;;;;;;;8.89;4.50;;;;;;;0.82;72.80;100775.69;2029905;79;20431;-68
2021/03/01 02:14:00;;;;;;;5.26;3.31;;;;;;;0.69;72.93;100775.78;2029495;79;20325;-68
2021/03/01 02:17:08;;;;;;;6.76;4.06;;;;;;;0.58;72.56;100772.63;2035328;76;20206;-68
2021/03/01 02:20:11;;;;;;;7.06;3.19;;;;;;;0.53;72.42;100773.13;2040284;79;20433;-68
2021/03/01 02:23:19;;;;;;;6.16;3.42;;;;;;;0.46;72.29;100766.78;2040502;79;20315;-68
2021/03/01 02:26:26;;;;;;;7.94;4.26;;;;;;;0.40;72.72;100763.91;2040123;79;20664;-68
2021/03/01 02:29:35;;;;;;;7.20;3.95;;;;;;;0.35;72.95;100754.19;2039865;79;20814;-68
2021/03/01 02:32:39;;;;;;;5.11;3.33;;;;;;;0.29;72.91;100759.81;2034533;77;20640;-69
2021/03/01 02:36:01;;;;;;;9.61;4.28;;;;;;;0.23;72.61;100759.47;2035236;79;20358;-68
2021/03/01 02:39:13;;;;;;;6.07;3.40;;;;;;;0.18;72.93;100756.66;2033710;79;20316;-68
2021/03/01 02:42:22;;;;;;;6.07;3.25;;;;;;;0.17;73.46;100754.88;2035606;79;20632;-68
2021/03/01 02:45:30;;;;;;;5.91;3.66;;;;;;;0.14;73.78;100757.25;2033205;77;23098;-68
2021/03/01 02:48:42;;;;;;;5.53;3.35;;;;;;;0.12;74.11;100751.16;2038970;79;20327;-68
2021/03/01 02:51:48;;;;;;;4.96;2.88;;;;;;;0.09;74.15;100745.00;2040567;79;20934;-68
2021/03/01 02:54:58;;;;;;;5.47;3.25;;;;;;;0.03;74.56;100750.66;2040340;79;20344;-69
2021/03/01 02:58:17;;;;;;;4.69;3.08;;;;;;;0.00;73.84;100745.38;2040356;79;20356;-69
2021/03/01 03:01:26;;;;;;;5.69;2.79;;;;;;;-0.01;73.61;100749.56;2039171;76;27220;-68
2021/03/01 03:04:34;;;;;;;;;;;;;;;-0.11;74.20;100751.50;2038064;79;20609;-68
2021/03/01 03:07:38;;;;;;;6.04;3.04;;;;;;;-0.15;74.13;100753.00;2038117;79;20057;-70
2021/03/01 03:10:49;;;;;;;5.66;3.00;;;;;;;-0.21;75.00;100750.03;2038420;79;20192;-70
2021/03/01 03:13:52;;;;;;;7.01;3.14;;;;;;;-0.22;74.51;100748.28;2038381;79;20445;-70
2021/03/01 03:17:02;;;;;;;5.76;3.17;;;;;;;-0.23;74.43;100745.63;2040671;76;22041;-70
2021/03/01 03:20:11;;;;;;;7.84;3.85;;;;;;;-0.27;74.44;100743.69;2043822;79;20380;-70
2021/03/01 03:23:12;;;;;;;6.41;3.44;;;;;;;-0.33;74.98;100739.13;2044171;79;20360;-70
2021/03/01 03:26:22;;;;;;;8.20;3.30;;;;;;;-0.34;74.85;100737.34;2044572;79;20416;-70
2021/03/01 03:29:23;;;;;;;7.10;3.58;;;;;;;-0.36;74.73;100739.81;2043898;79;20180;-70
2021/03/01 03:32:32;;;;;;;5.10;3.24;;;;;;;-0.39;74.74;100734.50;2038801;77;21578;-70
2021/03/01 03:35:35;;;;;;;6.19;3.35;;;;;;;-0.40;75.00;100736.97;2038371;79;20177;-70
2021/03/01 03:38:54;;;;;;;6.11;3.32;;;;;;;-0.44;74.93;100743.56;2038727;79;20919;-70
2021/03/01 03:41:57;;;;;;;8.52;3.69;;;;;;;-0.47;74.94;100734.84;2038744;79;20185;-70
2021/03/01 03:45:07;;;;;;;4.01;2.84;;;;;;;-0.51;74.84;100732.91;2038839;79;20681;-70
2021/03/01 03:48:21;;;;;;;6.08;3.30;;;;;;;-0.53;75.02;100740.47;2044402;79;20848;-70
2021/03/01 03:51:26;;;;;;;7.49;3.36;;;;;;;-0.61;75.06;100739.09;2044323;79;20233;-70
2021/03/01 03:54:38;;;;;;;6.91;2.84;;;;;;;-0.67;75.27;100738.72;2044298;79;20319;-70
2021/03/01 03:57:43;;;;;;;5.33;3.04;;;;;;;-0.70;75.66;100741.09;2043546;79;20191;-70
2021/03/01 04:00:53;;;;;;;6.78;2.81;;;;;;;-0.73;75.44;100734.09;2041698;76;21142;-70
2021/03/01 04:03:59;;;;;;;5.17;2.69;;;;;;;-0.75;75.21;100740.78;2037837;79;20365;-70
2021/03/01 04:07:08;;;;;;;5.71;3.34;;;;;;;-0.79;75.27;100738.84;2037977;79;20200;-70
2021/03/01 04:10:16;;;;;;;5.99;3.60;;;;;;;-0.83;75.32;100744.53;2038020;79;20682;-70
2021/03/01 04:13:27;;;;;;;6.80;3.43;;;;;;;-0.87;75.49;100739.16;2037009;79;20595;-70
2021/03/01 04:16:37;;;;;;;4.60;3.22;;;;;;;-0.91;75.70;100738.94;2040684;76;20382;-70
2021/03/01 04:19:41;;;;;;;6.59;3.40;;;;;;;-0.92;75.59;100738.84;2042201;79;20984;-70
2021/03/01 04:22:51;;;;;;;6.08;3.20;;;;;;;-0.96;75.56;100742.00;2041828;79;20177;-70
2021/03/01 04:25:54;;;;;;;6.17;3.24;;;;;;;-1.03;75.25;100735.66;2042443;79;20204;-70
2021/03/01 04:29:03;;;;;;;5.49;3.34;;;;;;;-1.05;75.24;100738.88;2042134;79;20251;-70
2021/03/01 04:32:04;;;;;;;7.41;3.42;;;;;;;-1.07;75.57;100735.34;2037567;77;21022;-70
2021/03/01 04:35:14;;;;;;;5.33;3.39;;;;;;;-1.10;75.74;100736.03;2037987;79;20309;-70
2021/03/01 04:38:22;;;;;;;8.21;3.73;;;;;;;-1.14;75.99;100744.25;2037136;79;20216;-70
2021/03/01 04:41:25;;;;;;;8.30;3.56;;;;;;;-1.13;76.03;100747.69;2037032;79;20214;-70
2021/03/01 04:44:33;;;;;;;8.24;4.19;;;;;;;-1.14;76.10;100743.38;2037632;79;20949;-70
2021/03/01 04:47:42;;;;;;;7.96;4.02;;;;;;;-1.19;76.73;100739.66;2040689;77;20326;-70
2021/03/01 04:50:51;;;;;;;9.99;4.09;;;;;;;-1.21;76.93;100729.38;2041748;79;20180;-70
2021/03/01 04:54:01;;;;;;;8.20;4.32;;;;;;;-1.22;76.86;100736.16;2043097;79;20180;-70
2021/03/01 04:57:03;;;;;;;9.80;4.08;;;;;;;-1.21;77.74;100734.47;2041579;79;20176;-70
2021/03/01 05:00:12;;;;;;;11.96;4.31;;;;;;;-1.19;78.04;100737.13;2042024;79;20232;-68
2021/03/01 05:03:14;;;;;;;9.83;3.87;;;;;;;-1.17;78.31;100730.44;2036890;79;20249;-68
2021/03/01 05:06:26;;;;;;;9.31;4.21;;;;;;;-1.11;78.76;100731.72;2037223;79;20841;-68
2021/03/01 05:09:37;;;;;;;10.21;5.30;;;;;;;-1.02;78.81;100724.66;2036983;79;20651;-68
2021/03/01 05:12:38;;;;;;;8.64;4.22;;;;;;;-0.92;79.54;100726.97;2037401;79;20232;-67
2021/03/01 05:15:46;;;;;;;10.52;5.48;;;;;;;-0.80;79.43;100715.78;2036979;76;20884;-68
2021/03/01 05:18:55;;;;;;;11.59;5.48;;;;;;;-0.72;79.87;100718.06;2041799;79;20686;-68
2021/03/01 05:21:57;;;;;;;11.39;5.61;;;;;;;-0.57;79.83;100724.84;2043077;79;20192;-68
2021/03/01 05:25:06;;;;;;;10.95;5.39;;;;;;;-0.43;79.94;100724.91;2042072;79;20192;-68
2021/03/01 05:28:14;;;;;;;10.82;5.14;;;;;;;-0.15;79.93;100722.34;2041953;79;20196;-68
2021/03/01 05:31:16;;;;;;;10.57;5.70;;;;;;;0.05;79.33;100723.53;2036867;76;21466;-68
2021/03/01 05:34:24;;;;;;;14.96;6.16;;;;;;;0.06;78.20;100721.84;2035147;79;20616;-68
2021/03/01 05:37:26;;;;;;;14.68;6.25;;;;;;;0.06;77.90;100714.19;2035236;79;20419;-68
2021/03/01 05:40:34;;;;;;;12.29;6.19;;;;;;;0.17;77.85;100716.56;2034401;79;20350;-67
2021/03/01 05:43:45;;;;;;;12.15;5.96;;;;;;;0.18;77.35;100720.00;2035821;79;21360;-68
2021/03/01 05:46:48;;;;;;;12.44;5.38;;;;;;;0.18;77.04;100718.34;2037823;77;20436;-68
2021/03/01 05:49:59;;;;;;;10.80;5.35;;;;;;;0.14;76.38;100718.06;2040729;79;20319;-68
2021/03/01 05:53:02;;;;;;;10.95;5.41;;;;;;;0.03;76.26;100714.03;2040750;79;20750;-68
2021/03/01 05:56:16;;;;;;;11.24;5.79;;;;;;;0.02;76.63;100722.47;2039881;79;20363;-68
2021/03/01 05:59:26;;;;;;;15.95;6.63;;;;;;;0.04;77.22;100721.78;2040142;79;20340;-68
2021/03/01 06:02:34;;;;;;;11.60;6.03;;;;;;;0.09;77.08;100717.81;2034313;77;25080;-68
2021/03/01 06:05:46;;;;;;;12.86;5.57;;;;;;;0.21;77.69;100715.09;2035188;79;21066;-68
2021/03/01 06:08:54;;;;;;;14.99;6.40;;;;;;;0.32;77.24;100720.81;2035329;79;20334;-68
2021/03/01 06:12:02;;;;;;;12.66;6.52;;;;;;;0.44;77.60;100718.97;2035314;79;20352;-68
2021/03/01 06:15:05;;;;;;;14.38;6.31;;;;;;;0.49;77.02;100713.31;2033885;79;20173;-68
2021/03/01 06:18:13;;;;;;;;;;;;;;;0.52;76.92;100720.25;2040071;79;20349;-68
2021/03/01 06:21:22;;;;;;;13.06;6.34;;;;;;;0.60;76.54;100719.03;2039515;79;20181;-67
2021/03/01 06:24:30;;;;;;;15.57;6.55;;;;;;;0.51;75.97;100724.50;2039976;79;20327;-68
2021/03/01 06:27:56;;;;;;;15.90;6.74;;;;;;;0.49;76.01;100730.31;2139918;68;20325;-68
2021/03/01 06:31:44;;;;;;;17.83;6.78;;;;;;;0.47;76.12;100730.22;2031005;77;21164;-67
2021/03/01 06:34:52;;;;;;;13.56;6.38;;;;;;;0.56;77.07;100730.78;2030237;79;20313;-68
2021/03/01 06:38:24;;;;;;;14.71;6.75;;;;;;;0.56;76.49;100732.44;2033664;79;21297;-68
2021/03/01 06:41:32;;;;;;;12.94;6.47;;;;;;;0.48;76.36;100733.66;2033900;79;20363;-68
2021/03/01 06:44:34;;;;;;;19.71;7.51;;;;;;;0.48;76.22;100741.34;2034080;79;20328;-68
2021/03/01 06:47:55;;;;;;;13.15;6.28;;;;;;;0.44;76.72;100734.28;2130913;68;20380;-70
2021/03/01 06:51:05;;;;;;;15.06;6.54;;;;;;;0.55;77.84;100730.69;2025579;79;20185;-72
2021/03/01 06:54:24;;;;;;;14.57;5.94;;;;;;;0.72;77.98;100736.72;2029253;79;20321;-71
2021/03/01 06:57:32;;;;;;;13.27;5.26;;;;;;;0.82;78.09;100736.44;2029628;79;20393;-70
2021/03/01 07:00:58;;;;;;;12.86;6.13;;;;;;;1.03;78.21;100744.44;2008765;80;21530;-70
2021/03/01 07:04:03;;;;;;;12.85;5.88;;;;;;;1.25;77.63;100751.59;2012831;78;20993;-69
2021/03/01 07:07:07;;;;;;;11.38;5.46;;;;;;;1.29;76.93;100745.88;2013603;80;20344;-72
2021/03/01 07:10:10;;;;;;;13.32;6.47;;;;;;;1.32;76.51;100752.03;2014267;80;20749;-70
2021/03/01 07:13:26;;;;;;;15.23;6.64;;;;;;;1.38;76.45;100752.34;2014468;80;20333;-71
2021/03/01 07:16:28;;;;;;;10.39;5.99;;;;;;;1.56;76.11;100743.91;2121642;68;20638;-72
2021/03/01 07:19:39;;;;;;;11.46;6.24;;;;;;;1.70;75.95;100755.75;2014198;80;20448;-75
2021/03/01 07:23:14;;;;;;;11.99;6.64;;;;;;;1.88;75.69;100746.47;2013937;80;20332;-72
2021/03/01 07:26:17;;;;;;;11.81;6.31;;;;;;;2.03;75.28;100760.06;2119383;69;20375;-71
2021/03/01 07:29:21;;;;;;;12.63;5.55;;;;;;;2.20;75.14;100762.63;2036365;79;20192;-72
2021/03/01 07:32:26;;;;;;;11.02;5.39;;;;;;;2.40;74.73;100755.13;2034866;77;20920;-72
2021/03/01 07:35:29;;;;;;;14.84;6.06;;;;;;;2.63;74.35;100753.69;2036324;79;20687;-73
2021/03/01 07:38:32;;;;;;;9.25;5.36;;;;;;;2.93;73.67;100758.56;2036774;79;20308;-72
2021/03/01 07:41:34;;;;;;;8.75;5.14;;;;;;;3.23;72.04;100764.25;2038108;79;20321;-72
2021/03/01 07:44:38;;;;;;;8.99;5.39;;;;;;;3.59;71.15;100762.50;2039163;79;20313;-72
2021/03/01 07:47:40;;;;;;;7.89;5.24;;;;;;;3.98;69.89;100757.41;2037544;76;20450;-72
2021/03/01 07:50:47;;;;;;;10.31;5.54;;;;;;;4.39;68.40;100762.63;2039067;79;20535;-72
2021/03/01 07:53:49;;;;;;;10.01;5.29;;;;;;;4.77;67.98;100759.06;2038734;79;20328;-72
2021/03/01 07:56:50;;;;;;;7.88;5.25;;;;;;;5.13;66.67;100759.66;2038334;79;20338;-71
2021/03/01 07:59:53;;;;;;;8.10;4.64;;;;;;;5.45;65.22;100758.34;2038590;79;20369;-71
2021/03/01 08:02:55;;;;;;;8.89;5.50;;;;;;;5.80;63.79;100752.75;2037990;76;22327;-74
2021/03/01 08:05:57;;;;;;;7.70;5.35;;;;;;;6.10;63.32;100763.31;2038352;79;20338;-72
2021/03/01 08:08:59;;;;;;;6.91;4.81;;;;;;;6.39;62.43;100757.47;2038526;79;20334;-72
2021/03/01 08:12:00;;;;;;;6.20;4.50;;;;;;;6.68;61.65;100760.16;2038970;79;20322;-72
2021/03/01 08:15:04;;;;;;;7.89;4.89;;;;;;;6.92;60.06;100758.38;2037791;79;20961;-71
2021/03/01 08:18:09;;;;;;;6.70;4.74;;;;;;;7.23;59.63;100752.47;2033170;77;25549;-73
2021/03/01 08:21:11;;;;;;;6.76;4.69;;;;;;;7.49;58.96;100753.25;2033125;79;20435;-73
2021/03/01 08:24:48;;;;;;;7.43;4.66;;;;;;;7.74;57.11;100745.41;2033416;79;20440;-73
2021/03/01 08:27:50;;;;;;;6.38;4.64;;;;;;;7.93;55.62;100751.09;2033743;79;20363;-72
2021/03/01 08:30:52;;;;;;;6.65;4.86;;;;;;;8.18;55.53;100756.09;2033649;77;21674;-70
2021/03/01 08:34:24;;;;;;;6.79;4.21;;;;;;;8.35;54.42;100744.53;2038778;79;20433;-70
2021/03/01 08:37:45;;;;;;;5.25;4.06;;;;;;;8.62;54.34;100752.13;2037511;79;20326;-70
2021/03/01 08:40:55;;;;;;;5.82;4.46;;;;;;;8.83;52.68;100749.19;2038400;79;20169;-70
2021/03/01 08:43:59;;;;;;;7.26;4.60;;;;;;;8.99;52.10;100748.72;2038156;79;20207;-71
2021/03/01 08:47:03;;;;;;;7.26;4.56;;;;;;;9.13;51.32;100751.63;2033708;76;21121;-71
2021/03/01 08:50:06;;;;;;;6.59;4.01;;;;;;;9.31;50.65;100739.09;2032204;79;20161;-70
2021/03/01 08:53:08;;;;;;;4.97;4.15;;;;;;;9.41;49.92;100732.41;2031135;79;20713;-72
2021/03/01 08:56:39;;;;;;;6.29;5.18;;;;;;;9.60;49.52;100738.84;2033552;79;20743;-73
2021/03/01 08:59:41;;;;;;;6.16;4.26;;;;;;;9.69;48.25;100749.41;2028960;79;20158;-73
2021/03/01 09:02:42;;;;;;;5.49;4.14;;;;;;;9.77;48.50;100747.84;2037311;76;20777;-73
2021/03/01 09:06:01;;;;;;;5.10;4.09;;;;;;;10.02;47.99;100740.56;2038162;79;20169;-73
2021/03/01 09:09:06;;;;;;;6.37;4.56;;;;;;;10.07;47.52;100741.53;2036253;79;20216;-73
2021/03/01 09:12:16;;;;;;;5.70;4.05;;;;;;;10.32;47.22;100746.38;2034903;79;20250;-74
2021/03/01 09:15:20;;;;;;;5.05;4.35;;;;;;;10.42;46.24;100743.09;2034717;76;20173;-74
2021/03/01 09:18:27;;;;;;;5.20;4.41;;;;;;;10.60;46.05;100747.75;2031651;79;20193;-73
2021/03/01 09:21:36;;;;;;;4.85;3.90;;;;;;;10.88;45.29;100747.34;2030830;79;20189;-73
2021/03/01 09:24:38;;;;;;;3.94;3.56;;;;;;;11.03;44.89;100738.91;2031271;79;20225;-74
2021/03/01 09:27:40;;;;;;;5.95;3.81;;;;;;;11.07;44.39;100734.63;2030618;79;20173;-73
2021/03/01 09:30:42;;;;;;;4.94;4.44;;;;;;;11.21;43.83;100735.72;2031381;76;21504;-73
2021/03/01 09:33:45;;;;;;;5.79;3.96;;;;;;;11.32;43.62;100738.47;2036513;79;20853;-74
2021/03/01 09:36:48;;;;;;;4.40;3.47;;;;;;;11.40;43.86;100729.91;2036606;79;20172;-73
2021/03/01 09:39:50;;;;;;;5.30;4.36;;;;;;;11.64;43.27;100741.50;2035290;79;20395;-73
2021/03/01 09:42:54;;;;;;;4.91;3.70;;;;;;;11.85;42.94;100734.03;2035788;79;20221;-74
2021/03/01 09:45:58;;;;;;;6.28;4.40;;;;;;;12.01;42.54;100728.09;2033520;77;20922;-74
2021/03/01 09:49:02;;;;;;;3.56;3.26;;;;;;;12.05;41.42;100729.03;2030742;79;20199;-73
2021/03/01 09:52:04;;;;;;;4.39;3.99;;;;;;;11.98;41.51;100728.06;2030884;79;20173;-73
2021/03/01 09:55:09;;;;;;;4.90;3.71;;;;;;;12.15;41.77;100722.19;2030928;79;20574;-74
2021/03/01 09:58:41;;;;;;;5.86;3.79;;;;;;;12.35;41.19;100720.66;2031261;79;20731;-73
2021/03/01 10:01:43;;;;;;;4.78;3.46;;;;;;;12.51;40.64;100727.75;2028586;77;21193;-73
2021/03/01 10:04:46;;;;;;;4.31;3.70;;;;;;;12.62;40.13;100723.53;2035764;79;20275;-73
2021/03/01 10:08:07;;;;;;;3.90;2.94;;;;;;;12.66;39.38;100714.88;2036211;79;20196;-75
2021/03/01 10:11:23;;;;;;;5.01;3.71;;;;;;;12.71;39.56;100718.38;2036047;79;20210;-73
2021/03/01 10:14:29;;;;;;;3.64;3.19;;;;;;;12.78;39.08;100711.50;2036391;79;20194;-73
2021/03/01 10:17:33;;;;;;;4.06;3.50;;;;;;;12.87;39.29;100721.09;2030990;77;20562;-73
2021/03/01 10:20:54;;;;;;;5.82;3.35;;;;;;;12.95;38.63;100715.09;2030982;79;20700;-73
2021/03/01 10:24:06;;;;;;;3.38;3.06;;;;;;;13.02;37.77;100721.22;2030424;79;20227;-73
2021/03/01 10:27:08;;;;;;;4.35;3.65;;;;;;;13.08;37.61;100715.16;2030986;79;20215;-73
2021/03/01 10:30:17;;;;;;;3.58;3.28;;;;;;;13.14;38.31;100712.63;2030646;79;20184;-73
2021/03/01 10:33:19;;;;;;;;;;;;;;;13.27;37.83;100710.09;2038713;79;20633;-73
2021/03/01 10:36:21;;;;;;;3.63;2.88;;;;;;;13.34;36.79;100710.16;2035944;79;20053;-73
2021/03/01 10:39:32;;;;;;;3.40;3.09;;;;;;;13.48;37.56;100722.41;2036756;79;20200;-73
2021/03/01 10:42:38;;;;;;;3.56;3.10;;;;;;;13.61;36.31;100712.88;2036451;79;20185;-73
2021/03/01 10:45:43;;;;;;;3.78;3.26;;;;;;;13.65;35.62;100706.84;2034376;77;20572;-73
2021/03/01 10:48:45;;;;;;;4.51;3.39;;;;;;;13.64;35.67;100714.63;2031159;79;20480;-74
2021/03/01 10:51:48;;;;;;;3.81;3.06;;;;;;;13.75;35.84;100713.81;2031012;79;20709;-73
2021/03/01 10:54:54;;;;;;;5.64;4.05;;;;;;;13.71;35.35;100711.22;2029555;79;20170;-73
2021/03/01 10:57:56;;;;;;;4.68;3.29;;;;;;;13.53;34.86;100710.25;2030362;79;20174;-74
2021/03/01 11:00:58;;;;;;;8.14;3.00;;;;;;;13.72;35.58;100708.59;2031581;77;20202;-73
2021/03/01 11:04:00;;;;;;;4.15;3.04;;;;;;;13.80;35.09;100708.63;2036637;79;20176;-73
2021/03/01 11:07:02;;;;;;;3.64;3.04;;;;;;;14.00;34.85;100700.84;2036125;79;20216;-73
2021/03/01 11:10:05;;;;;;;3.46;2.91;;;;;;;14.17;34.67;100701.75;2036323;79;20926;-73
2021/03/01 11:13:07;;;;;;;3.85;2.97;;;;;;;14.24;34.44;100695.69;2036195;79;20730;-73
2021/03/01 11:16:09;;;;;;;3.84;3.11;;;;;;;14.41;33.84;100698.31;2033865;76;21394;-73
2021/03/01 11:19:12;;;;;;;3.30;2.99;;;;;;;14.55;33.59;100698.38;2031658;79;20298;-73
2021/03/01 11:22:14;;;;;;;5.05;3.34;;;;;;;14.77;33.40;100694.88;2031428;79;20183;-73
2021/03/01 11:25:16;;;;;;;3.64;3.04;;;;;;;14.88;32.91;100692.25;2030919;79;20318;-73
2021/03/01 11:28:18;;;;;;;3.90;2.86;;;;;;;14.96;33.36;100690.50;2030848;79;20198;-73
2021/03/01 11:31:20;;;;;;;5.06;3.38;;;;;;;14.93;32.39;100691.38;2032969;76;22202;-73
2021/03/01 11:34:22;;;;;;;3.17;2.88;;;;;;;15.10;32.04;100691.34;2035745;79;20210;-71
2021/03/01 11:37:24;;;;;;;3.53;2.79;;;;;;;15.20;32.42;100669.50;2036544;79;20256;-71
2021/03/01 11:40:25;;;;;;;5.43;3.09;;;;;;;15.35;31.85;100668.59;2035512;79;20215;-72
2021/03/01 11:43:27;;;;;;;3.76;3.39;;;;;;;15.30;30.73;100665.13;2036359;79;20185;-71
2021/03/01 11:46:29;;;;;;;4.03;2.64;;;;;;;15.26;31.00;100660.75;2032913;76;21533;-71
2021/03/01 11:49:31;;;;;;;5.01;2.84;;;;;;;15.29;31.98;100659.03;2029492;79;20158;-72
2021/03/01 11:52:32;;;;;;;3.16;2.86;;;;;;;15.47;31.38;100663.34;2030139;79;20465;-72
2021/03/01 11:55:34;;;;;;;3.58;2.76;;;;;;;15.65;30.94;100663.28;2030569;79;20199;-71
2021/03/01 11:58:37;;;;;;;4.38;2.99;;;;;;;15.70;31.29;100651.03;2030622;79;20199;-71
2021/03/01 12:01:40;;;;;;;4.13;2.81;;;;;;;15.80;30.96;100644.00;2033105;77;20310;-72
2021/03/01 12:04:42;;;;;;;3.58;3.10;;;;;;;15.83;30.81;100654.47;2036071;79;20686;-71
2021/03/01 12:07:44;;;;;;;3.36;2.85;;;;;;;15.88;30.23;100636.97;2035793;79;20197;-71
2021/03/01 12:10:46;;;;;;;6.22;3.06;;;;;;;15.70;30.52;100629.22;2035036;79;20218;-71
2021/03/01 12:13:49;;;;;;;4.63;2.89;;;;;;;15.88;31.43;100630.84;2035527;79;20204;-72
2021/03/01 12:16:50;;;;;;;3.05;2.80;;;;;;;15.93;31.06;100623.84;2031527;77;21241;-71
2021/03/01 12:19:52;;;;;;;4.30;2.89;;;;;;;16.00;30.12;100621.19;2029776;79;20194;-71
2021/03/01 12:22:54;;;;;;;3.42;2.63;;;;;;;16.02;30.17;100614.19;2030111;79;20219;-72
2021/03/01 12:25:56;;;;;;;6.18;2.85;;;;;;;16.12;29.90;100607.09;2030031;79;20177;-71
2021/03/01 12:29:01;;;;;;;5.00;2.65;;;;;;;16.24;29.72;100596.53;2029497;79;20170;-71
2021/03/01 12:32:03;;;;;;;3.47;2.72;;;;;;;16.26;29.38;100596.53;2033471;79;20802;-71
2021/03/01 12:35:06;;;;;;;3.66;2.75;;;;;;;16.36;29.67;100592.09;2038044;79;20196;-71
2021/03/01 12:38:07;;;;;;;2.96;2.63;;;;;;;16.61;29.25;100590.97;2037817;79;20746;-71
2021/03/01 12:41:09;;;;;;;2.56;2.21;;;;;;;16.71;28.93;100587.41;2038520;79;20601;-71
2021/03/01 12:44:11;;;;;;;4.90;2.74;;;;;;;16.79;29.02;100575.06;2040687;79;20165;-71
2021/03/01 12:47:13;;;;;;;3.91;2.67;;;;;;;16.73;28.01;100576.91;2033456;76;20951;-72
2021/03/01 12:50:14;;;;;;;3.40;2.74;;;;;;;16.70;28.00;100576.94;2032036;79;20255;-72
2021/03/01 12:53:16;;;;;;;3.21;2.29;;;;;;;16.57;28.65;100573.53;2032358;79;20158;-72
2021/03/01 12:56:18;;;;;;;3.01;2.08;;;;;;;16.67;28.78;100566.44;2033148;79;20173;-71
2021/03/01 12:59:19;;;;;;;1.95;1.81;;;;;;;16.84;28.11;100562.75;2032729;79;20258;-71
2021/03/01 13:02:21;;;;;;;2.71;1.92;;;;;;;16.90;28.08;100556.59;2035821;77;23349;-72
2021/03/01 13:05:23;;;;;;;2.22;2.03;;;;;;;16.98;28.09;100552.13;2037235;79;20294;-72
2021/03/01 13:08:26;;;;;;;2.40;1.95;;;;;;;16.96;27.50;100553.03;2037397;79;20185;-71
2021/03/01 13:11:28;;;;;;;2.61;1.70;;;;;;;16.94;27.74;100541.69;2038222;79;20206;-71
2021/03/01 13:14:29;;;;;;;4.70;1.92;;;;;;;16.91;26.52;100532.09;2038177;79;20189;-72
2021/03/01 13:17:31;;;;;;;2.13;1.63;;;;;;;17.06;27.33;100534.53;2032667;77;20243;-71
2021/03/01 13:20:32;;;;;;;4.81;1.71;;;;;;;16.97;26.54;100526.75;2032143;79;20207;-71
2021/03/01 13:23:35;;;;;;;2.24;1.67;;;;;;;17.06;27.33;100521.41;2032321;79;20203;-71
2021/03/01 13:26:37;;;;;;;1.96;1.75;;;;;;;17.14;25.71;100518.69;2032724;79;20703;-71
2021/03/01 13:29:39;;;;;;;2.41;1.56;;;;;;;17.13;26.17;100519.56;2032572;79;20174;-71
2021/03/01 13:32:41;;;;;;;2.64;1.40;;;;;;;17.23;26.91;100510.66;2036820;77;21647;-72
2021/03/01 13:35:43;;;;;;;4.75;1.20;;;;;;;17.28;26.12;100510.63;2037742;79;20336;-72
2021/03/01 13:38:44;;;;;;;1.54;1.41;;;;;;;17.34;26.48;100494.78;2037919;79;20251;-72
2021/03/01 13:41:46;;;;;;;2.44;1.77;;;;;;;17.30;25.76;100495.72;2037873;79;20187;-72
2021/03/01 13:44:47;;;;;;;2.10;1.41;;;;;;;17.29;25.65;100494.84;2037897;79;20843;-72
2021/03/01 13:47:49;;;;;;;1.86;1.54;;;;;;;17.22;25.20;100485.31;2031092;77;20181;-72
2021/03/01 13:50:51;;;;;;;2.10;1.91;;;;;;;17.19;25.44;100488.84;2032429;79;20169;-70
2021/03/01 13:53:54;;;;;;;3.44;1.56;;;;;;;17.23;25.19;100492.28;2032751;79;20223;-71
2021/03/01 13:56:55;;;;;;;4.46;1.89;;;;;;;17.23;25.50;100487.03;2032216;79;20197;-72
2021/03/01 13:59:57;;;;;;;1.81;1.26;;;;;;;17.31;26.03;100485.19;2032222;79;20526;-72
2021/03/01 14:02:59;;;;;;;2.06;1.20;;;;;;;17.31;25.46;100476.44;2029894;77;22136;-71
2021/03/01 14:06:01;;;;;;;1.27;1.10;;;;;;;17.31;25.18;100479.94;2031263;79;20271;-71
2021/03/01 14:09:04;;;;;;;1.44;1.10;;;;;;;17.43;25.61;100478.91;2032247;79;20855;-71
2021/03/01 14:12:06;;;;;;;1.40;0.90;;;;;;;17.43;25.19;100478.91;2032413;79;20158;-71
2021/03/01 14:15:09;;;;;;;2.09;0.77;;;;;;;17.31;24.21;100474.69;2031968;79;20193;-71
2021/03/01 14:18:11;;;;;;;0.93;0.63;;;;;;;17.24;23.83;100473.06;2032723;76;20434;-72
2021/03/01 14:21:14;;;;;;;0.81;0.70;;;;;;;17.23;24.05;100471.28;2032180;79;20813;-71
2021/03/01 14:24:15;;;;;;;5.26;0.81;;;;;;;17.10;23.43;100469.75;2033289;79;21058;-71
2021/03/01 14:27:19;;;;;;;1.02;0.66;;;;;;;17.03;23.56;100468.06;2032090;79;20211;-71
2021/03/01 14:30:21;;;;;;;5.19;0.90;;;;;;;16.87;24.94;100480.53;2032043;77;20417;-70